createdAt,value
2016-12-14T00:00:39.505Z,990.67
2016-12-14T00:01:48.193Z,990.64
2016-12-14T00:02:56.929Z,990.66
2016-12-14T00:04:05.619Z,990.67
2016-12-14T00:05:14.306Z,990.62
2016-12-14T00:06:22.991Z,990.67
2016-12-14T00:07:31.679Z,990.59
2016-12-14T00:08:40.419Z,990.56
2016-12-14T00:09:49.104Z,990.59
2016-12-14T00:10:57.796Z,990.6
2016-12-14T00:12:06.484Z,990.62
2016-12-14T00:13:15.493Z,990.65
2016-12-14T00:14:24.232Z,990.64
2016-12-14T00:15:32.928Z,990.64
2016-12-14T00:16:41.612Z,990.66
2016-12-14T00:17:50.296Z,990.64
2016-12-14T00:18:58.978Z,990.56
2016-12-14T00:20:07.710Z,990.65
2016-12-14T00:21:16.397Z,990.63
2016-12-14T00:22:25.082Z,990.62
2016-12-14T00:23:33.767Z,990.66
2016-12-14T00:24:42.491Z,990.68
2016-12-14T00:25:51.223Z,990.69
2016-12-14T00:26:59.908Z,990.68
2016-12-14T00:28:08.594Z,990.65
2016-12-14T00:29:17.275Z,990.68
2016-12-14T00:30:25.961Z,990.67
2016-12-14T00:31:34.696Z,990.71
2016-12-14T00:32:43.378Z,990.71
2016-12-14T00:33:52.063Z,990.77
2016-12-14T00:35:00.755Z,990.79
2016-12-14T00:36:09.440Z,990.8
2016-12-14T00:37:18.179Z,990.82
2016-12-14T00:38:26.862Z,990.86
2016-12-14T00:39:35.547Z,990.87
2016-12-14T00:40:44.230Z,990.88
2016-12-14T00:41:52.919Z,990.88
2016-12-14T00:43:01.692Z,990.93
2016-12-14T00:44:10.380Z,990.94
2016-12-14T00:45:19.063Z,990.99
2016-12-14T00:46:27.752Z,991
2016-12-14T00:47:36.437Z,991
2016-12-14T00:48:45.173Z,990.95
2016-12-14T00:49:53.861Z,991.01
2016-12-14T00:51:02.555Z,991.07
2016-12-14T00:52:11.248Z,991
2016-12-14T00:53:19.937Z,991.04
2016-12-14T00:54:28.682Z,991.07
2016-12-14T00:55:37.366Z,991.03
2016-12-14T00:56:46.047Z,991.02
2016-12-14T00:57:54.727Z,990.99
2016-12-14T00:59:03.412Z,990.97
2016-12-14T01:00:12.148Z,990.96
2016-12-14T01:01:20.829Z,991
2016-12-14T01:02:29.512Z,990.99
2016-12-14T01:03:38.196Z,991.03
2016-12-14T01:04:46.884Z,991.05
2016-12-14T01:05:55.625Z,991.04
2016-12-14T01:07:04.318Z,991.01
2016-12-14T01:08:13.004Z,990.99
2016-12-14T01:09:21.688Z,991.05
2016-12-14T01:10:30.371Z,991.06
2016-12-14T01:11:39.110Z,991.05
2016-12-14T01:12:47.800Z,991.09
2016-12-14T01:13:56.486Z,991.07
2016-12-14T01:15:05.174Z,991.12
2016-12-14T01:16:13.858Z,991.09
2016-12-14T01:17:22.643Z,991.09
2016-12-14T01:18:31.330Z,991.08
2016-12-14T01:19:40.037Z,991.07
2016-12-14T01:20:48.721Z,991.11
2016-12-14T01:21:57.408Z,991.1
2016-12-14T01:23:06.144Z,991.07
2016-12-14T01:24:14.826Z,991.17
2016-12-14T01:25:23.513Z,991.16
2016-12-14T01:26:32.205Z,991.22
2016-12-14T01:27:40.890Z,991.23
2016-12-14T01:28:49.622Z,991.2
2016-12-14T01:29:58.305Z,991.2
2016-12-14T01:31:06.991Z,991.21
2016-12-14T01:32:15.678Z,991.23
2016-12-14T01:33:24.392Z,991.25
2016-12-14T01:34:33.130Z,991.24
2016-12-14T01:35:41.814Z,991.28
2016-12-14T01:36:50.496Z,991.3
2016-12-14T01:37:59.181Z,991.31
2016-12-14T01:39:07.871Z,991.29
2016-12-14T01:40:16.905Z,991.23
2016-12-14T01:41:25.597Z,991.26
2016-12-14T01:42:34.284Z,991.22
2016-12-14T01:43:42.972Z,991.28
2016-12-14T01:44:51.659Z,991.28
2016-12-14T01:46:00.447Z,991.31
2016-12-14T01:47:09.135Z,991.32
2016-12-14T01:48:17.827Z,991.4
2016-12-14T01:49:26.521Z,991.31
2016-12-14T01:50:35.208Z,991.34
2016-12-14T01:51:43.943Z,991.26
2016-12-14T01:52:52.620Z,991.27
2016-12-14T01:54:01.303Z,991.35
2016-12-14T01:55:10.304Z,991.35
2016-12-14T01:56:18.990Z,991.32
2016-12-14T01:57:27.726Z,991.38
2016-12-14T01:58:36.414Z,991.37
2016-12-14T01:59:45.099Z,991.41
2016-12-14T02:00:53.787Z,991.38
2016-12-14T02:02:02.476Z,991.41
2016-12-14T02:03:11.209Z,991.37
2016-12-14T02:04:19.920Z,991.36
2016-12-14T02:05:28.607Z,991.36
2016-12-14T02:06:37.290Z,991.33
2016-12-14T02:07:45.974Z,991.35
2016-12-14T02:08:54.723Z,991.39
2016-12-14T02:10:03.408Z,991.43
2016-12-14T02:11:12.091Z,991.38
2016-12-14T02:12:20.777Z,991.39
2016-12-14T02:13:29.459Z,991.42
2016-12-14T02:14:38.195Z,991.43
2016-12-14T02:15:46.882Z,991.38
2016-12-14T02:16:55.597Z,991.43
2016-12-14T02:18:04.280Z,991.4
2016-12-14T02:19:12.969Z,991.41
2016-12-14T02:20:21.700Z,991.42
2016-12-14T02:21:30.383Z,991.39
2016-12-14T02:22:39.072Z,991.43
2016-12-14T02:23:47.752Z,991.43
2016-12-14T02:24:56.432Z,991.44
2016-12-14T02:26:05.174Z,991.44
2016-12-14T02:27:13.860Z,991.41
2016-12-14T02:28:22.538Z,991.48
2016-12-14T02:29:31.221Z,991.44
2016-12-14T02:30:39.913Z,991.45
2016-12-14T02:31:48.648Z,991.45
2016-12-14T02:32:57.334Z,991.52
2016-12-14T02:34:06.020Z,991.5
2016-12-14T02:35:14.703Z,991.55
2016-12-14T02:36:23.387Z,991.55
2016-12-14T02:37:32.150Z,991.57
2016-12-14T02:38:40.836Z,991.57
2016-12-14T02:39:49.519Z,991.59
2016-12-14T02:40:58.234Z,991.53
2016-12-14T02:42:06.921Z,991.54
2016-12-14T02:43:15.653Z,991.55
2016-12-14T02:44:24.335Z,991.53
2016-12-14T02:45:33.057Z,991.51
2016-12-14T02:46:41.741Z,991.54
2016-12-14T02:47:50.423Z,991.48
2016-12-14T02:48:59.154Z,991.53
2016-12-14T02:50:07.844Z,991.55
2016-12-14T02:51:16.529Z,991.54
2016-12-14T02:52:25.207Z,991.53
2016-12-14T02:53:33.890Z,991.53
2016-12-14T02:54:42.625Z,991.58
2016-12-14T02:55:51.312Z,991.56
2016-12-14T02:56:59.996Z,991.59
2016-12-14T02:58:08.683Z,991.58
2016-12-14T02:59:17.371Z,991.58
2016-12-14T03:00:26.111Z,991.64
2016-12-14T03:01:35.112Z,991.65
2016-12-14T03:02:43.795Z,991.66
2016-12-14T03:03:52.483Z,991.67
2016-12-14T03:05:01.172Z,991.68
2016-12-14T03:06:09.908Z,991.69
2016-12-14T03:07:18.589Z,991.78
2016-12-14T03:08:27.274Z,991.81
2016-12-14T03:09:35.992Z,991.79
2016-12-14T03:10:44.686Z,991.79
2016-12-14T03:11:53.423Z,991.81
2016-12-14T03:13:02.109Z,991.79
2016-12-14T03:14:10.803Z,991.8
2016-12-14T03:15:19.486Z,991.74
2016-12-14T03:16:28.171Z,991.79
2016-12-14T03:17:36.909Z,991.78
2016-12-14T03:18:45.596Z,991.78
2016-12-14T03:19:54.286Z,991.78
2016-12-14T03:21:02.971Z,991.81
2016-12-14T03:22:11.656Z,991.77
2016-12-14T03:23:20.386Z,991.8
2016-12-14T03:24:29.070Z,991.82
2016-12-14T03:25:37.767Z,991.81
2016-12-14T03:26:46.457Z,991.79
2016-12-14T03:27:55.144Z,991.81
2016-12-14T03:29:03.879Z,991.84
2016-12-14T03:30:12.558Z,991.88
2016-12-14T03:31:21.244Z,991.89
2016-12-14T03:32:29.932Z,991.9
2016-12-14T03:33:38.614Z,991.88
2016-12-14T03:34:47.444Z,991.83
2016-12-14T03:35:56.133Z,991.83
2016-12-14T03:37:04.819Z,991.84
2016-12-14T03:38:13.504Z,991.89
2016-12-14T03:39:22.187Z,991.91
2016-12-14T03:40:30.929Z,991.88
2016-12-14T03:41:39.606Z,991.96
2016-12-14T03:42:48.293Z,991.98
2016-12-14T03:43:56.984Z,991.98
2016-12-14T03:45:05.671Z,991.97
2016-12-14T03:46:14.358Z,991.95
2016-12-14T03:47:23.050Z,991.92
2016-12-14T03:48:31.737Z,991.89
2016-12-14T03:49:40.417Z,991.97
2016-12-14T03:50:49.097Z,991.91
2016-12-14T03:51:57.787Z,991.94
2016-12-14T03:53:06.788Z,991.91
2016-12-14T03:54:15.473Z,991.91
2016-12-14T03:55:24.164Z,991.88
2016-12-14T03:56:32.877Z,991.92
2016-12-14T03:57:41.563Z,991.94
2016-12-14T03:58:50.277Z,991.96
2016-12-14T03:59:58.966Z,991.95
2016-12-14T04:01:07.686Z,991.96
2016-12-14T04:02:16.367Z,991.99
2016-12-14T04:03:25.051Z,991.97
2016-12-14T04:04:33.746Z,992.02
2016-12-14T04:05:42.431Z,992.01
2016-12-14T04:06:51.118Z,992.05
2016-12-14T04:07:59.808Z,992.08
2016-12-14T04:09:08.492Z,992.13
2016-12-14T04:10:17.175Z,992.11
2016-12-14T04:11:25.887Z,992.2
2016-12-14T04:12:34.578Z,992.17
2016-12-14T04:13:43.256Z,992.21
2016-12-14T04:14:51.937Z,992.2
2016-12-14T04:16:00.625Z,992.28
2016-12-14T04:17:09.318Z,992.32
2016-12-14T04:18:18.000Z,992.33
2016-12-14T04:19:26.686Z,992.37
2016-12-14T04:20:35.373Z,992.42
2016-12-14T04:21:44.060Z,992.43
2016-12-14T04:22:52.746Z,992.42
2016-12-14T04:24:01.433Z,992.4
2016-12-14T04:25:10.114Z,992.38
2016-12-14T04:26:18.799Z,992.4
2016-12-14T04:27:27.479Z,992.34
2016-12-14T04:28:36.165Z,992.3
2016-12-14T04:29:44.848Z,992.32
2016-12-14T04:30:53.527Z,992.29
2016-12-14T04:32:02.211Z,992.22
2016-12-14T04:33:10.892Z,992.18
2016-12-14T04:34:19.577Z,992.2
2016-12-14T04:35:28.269Z,992.21
2016-12-14T04:36:36.956Z,992.22
2016-12-14T04:37:45.636Z,992.26
2016-12-14T04:38:54.329Z,992.26
2016-12-14T04:40:03.014Z,992.27
2016-12-14T04:41:11.703Z,992.3
2016-12-14T04:42:20.386Z,992.26
2016-12-14T04:43:29.102Z,992.29
2016-12-14T04:44:37.814Z,992.31
2016-12-14T04:45:46.497Z,992.29
2016-12-14T04:46:55.178Z,992.29
2016-12-14T04:48:03.864Z,992.25
2016-12-14T04:49:12.553Z,992.31
2016-12-14T04:50:21.547Z,992.35
2016-12-14T04:51:30.276Z,992.42
2016-12-14T04:52:38.962Z,992.45
2016-12-14T04:53:47.641Z,992.47
2016-12-14T04:54:56.328Z,992.49
2016-12-14T04:56:05.013Z,992.44
2016-12-14T04:57:13.696Z,992.36
2016-12-14T04:58:22.384Z,992.37
2016-12-14T04:59:31.065Z,992.35
2016-12-14T05:00:39.749Z,992.36
2016-12-14T05:01:48.432Z,992.38
2016-12-14T05:02:57.116Z,992.39
2016-12-14T05:04:05.799Z,992.39
2016-12-14T05:05:14.487Z,992.43
2016-12-14T05:06:23.171Z,992.42
2016-12-14T05:07:31.856Z,992.46
2016-12-14T05:08:40.569Z,992.46
2016-12-14T05:09:49.253Z,992.46
2016-12-14T05:10:57.934Z,992.41
2016-12-14T05:12:06.620Z,992.43
2016-12-14T05:13:15.303Z,992.44
2016-12-14T05:14:24.010Z,992.49
2016-12-14T05:15:32.697Z,992.48
2016-12-14T05:16:41.385Z,992.49
2016-12-14T05:17:50.071Z,992.5
2016-12-14T05:18:58.752Z,992.51
2016-12-14T05:20:07.436Z,992.51
2016-12-14T05:21:16.116Z,992.53
2016-12-14T05:22:25.113Z,992.51
2016-12-14T05:23:33.795Z,992.5
2016-12-14T05:24:42.482Z,992.53
2016-12-14T05:25:51.166Z,992.51
2016-12-14T05:26:59.849Z,992.47
2016-12-14T05:28:08.531Z,992.51
2016-12-14T05:29:17.216Z,992.56
2016-12-14T05:30:25.903Z,992.59
2016-12-14T05:31:34.585Z,992.63
2016-12-14T05:32:43.273Z,992.61
2016-12-14T05:33:51.959Z,992.63
2016-12-14T05:35:00.643Z,992.63
2016-12-14T05:36:09.651Z,992.63
2016-12-14T05:37:18.381Z,992.59
2016-12-14T05:38:27.060Z,992.64
2016-12-14T05:39:35.744Z,992.66
2016-12-14T05:40:44.420Z,992.59
2016-12-14T05:41:53.109Z,992.67
2016-12-14T05:43:01.792Z,992.66
2016-12-14T05:44:10.477Z,992.71
2016-12-14T05:45:19.162Z,992.69
2016-12-14T05:46:27.847Z,992.73
2016-12-14T05:47:36.530Z,992.68
2016-12-14T05:48:45.243Z,992.66
2016-12-14T05:49:53.929Z,992.66
2016-12-14T05:51:02.616Z,992.7
2016-12-14T05:52:11.308Z,992.72
2016-12-14T05:53:19.992Z,992.73
2016-12-14T05:54:28.674Z,992.71
2016-12-14T05:55:37.363Z,992.72
2016-12-14T05:56:46.044Z,992.73
2016-12-14T05:57:54.727Z,992.72
2016-12-14T05:59:03.409Z,992.68
2016-12-14T06:00:12.095Z,992.67
2016-12-14T06:01:20.780Z,992.64
2016-12-14T06:02:29.473Z,992.62
2016-12-14T06:03:38.471Z,992.63
2016-12-14T06:04:47.155Z,992.63
2016-12-14T06:05:55.840Z,992.64
2016-12-14T06:07:04.524Z,992.69
2016-12-14T06:08:13.218Z,992.72
2016-12-14T06:09:21.900Z,992.75
2016-12-14T06:10:30.591Z,992.76
2016-12-14T06:11:39.595Z,992.8
2016-12-14T06:12:48.278Z,992.83
2016-12-14T06:13:56.967Z,992.85
2016-12-14T06:15:05.652Z,992.89
2016-12-14T06:16:14.647Z,992.92
2016-12-14T06:17:23.331Z,992.92
2016-12-14T06:18:32.017Z,992.94
2016-12-14T06:19:41.032Z,992.98
2016-12-14T06:20:49.715Z,993.04
2016-12-14T06:21:58.399Z,993.07
2016-12-14T06:23:07.396Z,993.05
2016-12-14T06:24:16.085Z,993.08
2016-12-14T06:25:24.770Z,993.04
2016-12-14T06:26:33.454Z,993.04
2016-12-14T06:27:42.135Z,993.05
2016-12-14T06:28:50.816Z,993.06
2016-12-14T06:29:59.501Z,993.13
2016-12-14T06:31:08.190Z,993.15
2016-12-14T06:32:16.907Z,993.14
2016-12-14T06:33:25.585Z,993.15
2016-12-14T06:34:34.267Z,993.13
2016-12-14T06:35:42.947Z,993.11
2016-12-14T06:36:51.633Z,993.12
2016-12-14T06:38:00.320Z,993.11
2016-12-14T06:39:09.004Z,993.11
2016-12-14T06:40:17.694Z,993.13
2016-12-14T06:41:26.715Z,993.14
2016-12-14T06:42:35.400Z,993.2
2016-12-14T06:43:44.187Z,993.2
2016-12-14T06:44:52.869Z,993.22
2016-12-14T06:46:01.558Z,993.26
2016-12-14T06:47:10.553Z,993.28
2016-12-14T06:48:19.243Z,993.3
2016-12-14T06:49:27.926Z,993.35
2016-12-14T06:50:36.608Z,993.32
2016-12-14T06:51:45.289Z,993.36
2016-12-14T06:52:53.975Z,993.36
2016-12-14T06:54:02.668Z,993.35
2016-12-14T06:55:11.356Z,993.29
2016-12-14T06:56:20.060Z,993.41
2016-12-14T06:57:28.747Z,993.43
2016-12-14T06:58:37.434Z,993.49
2016-12-14T06:59:46.122Z,993.46
2016-12-14T07:00:54.805Z,993.51
2016-12-14T07:02:03.491Z,993.56
2016-12-14T07:03:12.180Z,993.57
2016-12-14T07:04:20.871Z,993.6
2016-12-14T07:05:29.569Z,993.61
2016-12-14T07:06:38.277Z,993.57
2016-12-14T07:07:46.962Z,993.52
2016-12-14T07:08:55.641Z,993.43
2016-12-14T07:10:04.333Z,993.4
2016-12-14T07:11:13.013Z,993.38
2016-12-14T07:12:21.709Z,993.4
2016-12-14T07:13:30.389Z,993.49
2016-12-14T07:14:39.072Z,993.49
2016-12-14T07:15:47.755Z,993.62
2016-12-14T07:16:56.440Z,993.64
2016-12-14T07:18:05.133Z,993.62
2016-12-14T07:19:13.819Z,993.57
2016-12-14T07:20:22.502Z,993.62
2016-12-14T07:21:31.185Z,993.59
2016-12-14T07:22:39.874Z,993.63
2016-12-14T07:23:48.552Z,993.6
2016-12-14T07:24:57.234Z,993.62
2016-12-14T07:26:05.919Z,993.62
2016-12-14T07:27:14.606Z,993.62
2016-12-14T07:28:23.289Z,993.63
2016-12-14T07:29:32.001Z,993.68
2016-12-14T07:30:40.686Z,993.63
2016-12-14T07:31:49.372Z,993.61
2016-12-14T07:32:58.075Z,993.66
2016-12-14T07:34:06.760Z,993.63
2016-12-14T07:35:15.445Z,993.66
2016-12-14T07:36:24.139Z,993.67
2016-12-14T07:37:33.145Z,993.74
2016-12-14T07:38:41.830Z,993.74
2016-12-14T07:39:50.509Z,993.77
2016-12-14T07:40:59.219Z,993.79
2016-12-14T07:42:07.907Z,993.74
2016-12-14T07:43:16.591Z,993.77
2016-12-14T07:44:25.276Z,993.79
2016-12-14T07:45:33.966Z,993.78
2016-12-14T07:46:42.645Z,993.78
2016-12-14T07:47:51.326Z,993.77
2016-12-14T07:49:00.014Z,993.82
2016-12-14T07:50:08.707Z,993.84
2016-12-14T07:51:17.410Z,993.82
2016-12-14T07:52:26.096Z,993.81
2016-12-14T07:53:34.779Z,993.82
2016-12-14T07:54:43.465Z,993.82
2016-12-14T07:55:52.151Z,993.84
2016-12-14T07:57:00.837Z,993.83
2016-12-14T07:58:09.521Z,993.84
2016-12-14T07:59:18.229Z,993.86
2016-12-14T08:00:26.915Z,993.87
2016-12-14T08:01:35.604Z,993.93
2016-12-14T08:02:44.294Z,993.88
2016-12-14T08:03:53.007Z,993.95
2016-12-14T08:05:01.706Z,993.91
2016-12-14T08:06:10.389Z,994
2016-12-14T08:07:19.073Z,993.94
2016-12-14T08:08:27.780Z,993.91
2016-12-14T08:09:36.468Z,993.89
2016-12-14T08:10:45.155Z,993.93
2016-12-14T08:11:53.837Z,993.97
2016-12-14T08:13:02.525Z,994
2016-12-14T08:14:11.204Z,994.03
2016-12-14T08:15:19.887Z,994.05
2016-12-14T08:16:28.569Z,994.03
2016-12-14T08:17:37.254Z,994.04
2016-12-14T08:18:45.941Z,994.11
2016-12-14T08:19:54.620Z,994.08
2016-12-14T08:21:03.305Z,994.12
2016-12-14T08:22:11.988Z,994.15
2016-12-14T08:23:20.674Z,994.21
2016-12-14T08:24:29.362Z,994.15
2016-12-14T08:25:38.047Z,994.16
2016-12-14T08:26:46.739Z,994.18
2016-12-14T08:27:55.423Z,994.2
2016-12-14T08:29:04.106Z,994.2
2016-12-14T08:30:12.793Z,994.23
2016-12-14T08:31:21.476Z,994.23
2016-12-14T08:32:30.473Z,994.25
2016-12-14T08:33:39.161Z,994.25
2016-12-14T08:34:47.872Z,994.25
2016-12-14T08:35:56.565Z,994.24
2016-12-14T08:37:05.249Z,994.24
2016-12-14T08:38:13.935Z,994.27
2016-12-14T08:39:22.619Z,994.23
2016-12-14T08:40:31.310Z,994.24
2016-12-14T08:41:39.990Z,994.22
2016-12-14T08:42:48.680Z,994.25
2016-12-14T08:43:57.364Z,994.22
2016-12-14T08:45:06.053Z,994.23
2016-12-14T08:46:14.741Z,994.25
2016-12-14T08:47:23.423Z,994.24
2016-12-14T08:48:32.105Z,994.29
2016-12-14T08:49:40.829Z,994.31
2016-12-14T08:50:49.513Z,994.33
2016-12-14T08:51:58.204Z,994.35
2016-12-14T08:53:06.889Z,994.37
2016-12-14T08:54:15.885Z,994.35
2016-12-14T08:55:24.595Z,994.35
2016-12-14T08:56:33.281Z,994.34
2016-12-14T08:57:41.970Z,994.3
2016-12-14T08:58:50.681Z,994.3
2016-12-14T08:59:59.370Z,994.33
2016-12-14T09:01:08.061Z,994.41
2016-12-14T09:02:16.742Z,994.4
2016-12-14T09:03:25.450Z,994.43
2016-12-14T09:04:34.147Z,994.46
2016-12-14T09:05:42.827Z,994.41
2016-12-14T09:06:51.511Z,994.44
2016-12-14T09:08:00.193Z,994.43
2016-12-14T09:09:08.878Z,994.47
2016-12-14T09:10:17.560Z,994.49
2016-12-14T09:11:26.562Z,994.55
2016-12-14T09:12:35.254Z,994.55
2016-12-14T09:13:43.966Z,994.58
2016-12-14T09:14:52.677Z,994.57
2016-12-14T09:16:01.361Z,994.57
2016-12-14T09:17:10.049Z,994.57
2016-12-14T09:18:18.735Z,994.58
2016-12-14T09:19:27.420Z,994.59
2016-12-14T09:20:36.101Z,994.51
2016-12-14T09:21:45.100Z,994.51
2016-12-14T09:22:53.787Z,994.53
2016-12-14T09:24:02.494Z,994.56
2016-12-14T09:25:11.211Z,994.59
2016-12-14T09:26:19.892Z,994.61
2016-12-14T09:27:28.600Z,994.6
2016-12-14T09:28:37.289Z,994.6
2016-12-14T09:29:45.973Z,994.56
2016-12-14T09:30:54.660Z,994.54
2016-12-14T09:32:03.346Z,994.6
2016-12-14T09:33:12.062Z,994.65
2016-12-14T09:34:20.749Z,994.66
2016-12-14T09:35:29.429Z,994.67
2016-12-14T09:36:38.113Z,994.65
2016-12-14T09:37:46.793Z,994.64
2016-12-14T09:38:55.477Z,994.64
2016-12-14T09:40:04.160Z,994.67
2016-12-14T09:41:12.844Z,994.63
2016-12-14T09:42:21.531Z,994.66
2016-12-14T09:43:30.238Z,994.7
2016-12-14T09:44:38.930Z,994.73
2016-12-14T09:45:47.617Z,994.73
2016-12-14T09:46:56.432Z,994.73
2016-12-14T09:48:05.122Z,994.77
2016-12-14T09:49:13.802Z,994.76
2016-12-14T09:50:22.487Z,994.76
2016-12-14T09:51:31.183Z,994.77
2016-12-14T09:52:39.922Z,994.76
2016-12-14T09:53:48.606Z,994.76
2016-12-14T09:54:57.288Z,994.78
2016-12-14T09:56:05.972Z,994.75
2016-12-14T09:57:14.656Z,994.77
2016-12-14T09:58:23.339Z,994.81
2016-12-14T09:59:32.037Z,994.76
2016-12-14T10:00:40.717Z,994.78
2016-12-14T10:01:49.405Z,994.76
2016-12-14T10:02:58.087Z,994.76
2016-12-14T10:04:06.784Z,994.8
2016-12-14T10:05:15.470Z,994.76
2016-12-14T10:06:24.160Z,994.79
2016-12-14T10:07:32.843Z,994.8
2016-12-14T10:08:41.555Z,994.85
2016-12-14T10:09:50.275Z,994.88
2016-12-14T10:10:58.966Z,994.87
2016-12-14T10:12:07.662Z,994.89
2016-12-14T10:13:16.345Z,994.89
2016-12-14T10:14:25.052Z,994.88
2016-12-14T10:15:33.855Z,994.85
2016-12-14T10:16:42.543Z,994.89
2016-12-14T10:17:51.228Z,994.84
2016-12-14T10:18:59.916Z,994.85
2016-12-14T10:20:08.603Z,994.88
2016-12-14T10:21:17.286Z,994.87
2016-12-14T10:22:25.967Z,994.9
2016-12-14T10:23:34.650Z,994.92
2016-12-14T10:24:43.339Z,994.92
2016-12-14T10:25:52.028Z,994.92
2016-12-14T10:27:01.027Z,994.96
2016-12-14T10:28:09.722Z,994.97
2016-12-14T10:29:18.403Z,994.97
2016-12-14T10:30:27.086Z,994.98
2016-12-14T10:31:35.807Z,994.98
2016-12-14T10:32:44.495Z,995.02
2016-12-14T10:33:53.176Z,995.03
2016-12-14T10:35:01.864Z,995.04
2016-12-14T10:36:10.555Z,994.99
2016-12-14T10:37:19.241Z,994.99
2016-12-14T10:38:27.923Z,994.98
2016-12-14T10:39:36.613Z,995
2016-12-14T10:40:45.299Z,995.06
2016-12-14T10:41:54.296Z,995
2016-12-14T10:43:03.303Z,995
2016-12-14T10:44:11.998Z,995.03
2016-12-14T10:45:20.692Z,995.03
2016-12-14T10:46:29.380Z,995
2016-12-14T10:47:38.093Z,994.98
2016-12-14T10:48:46.775Z,994.99
2016-12-14T10:49:55.473Z,995.01
2016-12-14T10:51:04.156Z,995.03
2016-12-14T10:52:12.835Z,995.05
2016-12-14T10:53:21.520Z,995.04
2016-12-14T10:54:30.202Z,995.02
2016-12-14T10:55:38.888Z,995
2016-12-14T10:56:47.579Z,995.02
2016-12-14T10:57:56.270Z,995.02
2016-12-14T10:59:04.954Z,995.03
2016-12-14T11:00:13.649Z,995.01
2016-12-14T11:01:22.331Z,994.97
2016-12-14T11:02:31.020Z,995.02
2016-12-14T11:03:39.710Z,994.98
2016-12-14T11:04:48.394Z,994.98
2016-12-14T11:05:57.094Z,995.02
2016-12-14T11:07:05.782Z,995.08
2016-12-14T11:08:14.470Z,995.16
2016-12-14T11:09:23.158Z,995.17
2016-12-14T11:10:31.848Z,995.12
2016-12-14T11:11:40.536Z,995.06
2016-12-14T11:12:49.227Z,995.04
2016-12-14T11:13:57.916Z,995.06
2016-12-14T11:15:06.635Z,995.12
2016-12-14T11:16:15.324Z,995.13
2016-12-14T11:17:24.012Z,995.19
2016-12-14T11:18:33.097Z,995.2
2016-12-14T11:19:41.788Z,995.2
2016-12-14T11:20:50.494Z,995.22
2016-12-14T11:21:59.187Z,995.18
2016-12-14T11:23:07.873Z,995.19
2016-12-14T11:24:16.567Z,995.15
2016-12-14T11:25:25.263Z,995.14
2016-12-14T11:26:33.954Z,995.12
2016-12-14T11:27:42.639Z,995.11
2016-12-14T11:28:51.331Z,995.17
2016-12-14T11:30:00.027Z,995.2
2016-12-14T11:31:08.720Z,995.22
2016-12-14T11:32:17.408Z,995.21
2016-12-14T11:33:26.099Z,995.21
2016-12-14T11:34:34.790Z,995.19
2016-12-14T11:35:43.476Z,995.23
2016-12-14T11:36:52.167Z,995.2
2016-12-14T11:38:00.853Z,995.24
2016-12-14T11:39:09.544Z,995.23
2016-12-14T11:40:18.235Z,995.2
2016-12-14T11:41:26.929Z,995.17
2016-12-14T11:42:35.616Z,995.18
2016-12-14T11:43:44.312Z,995.17
2016-12-14T11:44:53.011Z,995.12
2016-12-14T11:46:01.699Z,995.14
2016-12-14T11:47:10.393Z,995.13
2016-12-14T11:48:19.086Z,995.1
2016-12-14T11:49:27.777Z,995.12
2016-12-14T11:50:36.470Z,995.13
2016-12-14T11:51:45.165Z,995.16
2016-12-14T11:52:53.865Z,995.13
2016-12-14T11:54:02.565Z,995.17
2016-12-14T11:55:11.257Z,995.13
2016-12-14T11:56:19.947Z,995.21
2016-12-14T11:57:28.964Z,995.16
2016-12-14T11:58:37.652Z,995.2
2016-12-14T11:59:46.348Z,995.18
2016-12-14T12:00:55.049Z,995.16
2016-12-14T12:02:03.743Z,995.17
2016-12-14T12:03:12.438Z,995.22
2016-12-14T12:04:21.157Z,995.2
2016-12-14T12:05:29.846Z,995.24
2016-12-14T12:06:38.541Z,995.24
2016-12-14T12:07:47.237Z,995.26
2016-12-14T12:08:55.935Z,995.27
2016-12-14T12:10:04.621Z,995.29
2016-12-14T12:11:13.308Z,995.28
2016-12-14T12:12:22.001Z,995.22
2016-12-14T12:13:30.695Z,995.24
2016-12-14T12:14:39.397Z,995.23
2016-12-14T12:15:48.142Z,995.28
2016-12-14T12:16:57.168Z,995.27
2016-12-14T12:18:05.863Z,995.28
2016-12-14T12:19:14.551Z,995.32
2016-12-14T12:20:23.247Z,995.32
2016-12-14T12:21:31.949Z,995.29
2016-12-14T12:22:40.977Z,995.24
2016-12-14T12:23:49.672Z,995.26
2016-12-14T12:24:58.366Z,995.2
2016-12-14T12:26:07.065Z,995.18
2016-12-14T12:27:15.772Z,995.14
2016-12-14T12:28:24.471Z,995.12
2016-12-14T12:29:33.174Z,995.13
2016-12-14T12:30:41.864Z,995.21
2016-12-14T12:31:50.578Z,995.23
2016-12-14T12:32:59.274Z,995.23
2016-12-14T12:34:07.968Z,995.26
2016-12-14T12:35:16.691Z,995.28
2016-12-14T12:36:25.387Z,995.26
2016-12-14T12:37:34.083Z,995.23
2016-12-14T12:38:42.773Z,995.22
2016-12-14T12:39:51.469Z,995.25
2016-12-14T12:41:00.172Z,995.28
2016-12-14T12:42:08.864Z,995.25
2016-12-14T12:43:17.558Z,995.29
2016-12-14T12:44:26.255Z,995.2
2016-12-14T12:45:34.955Z,995.25
2016-12-14T12:46:43.651Z,995.26
2016-12-14T12:47:52.343Z,995.31
2016-12-14T12:49:01.045Z,995.31
2016-12-14T12:50:09.734Z,995.34
2016-12-14T12:51:18.427Z,995.33
2016-12-14T12:52:27.124Z,995.32
2016-12-14T12:53:35.811Z,995.34
2016-12-14T12:54:44.501Z,995.28
2016-12-14T12:55:53.201Z,995.28
2016-12-14T12:57:01.888Z,995.26
2016-12-14T12:58:10.579Z,995.22
2016-12-14T12:59:19.269Z,995.27
2016-12-14T13:00:27.958Z,995.27
2016-12-14T13:01:36.646Z,995.28
2016-12-14T13:02:45.351Z,995.29
2016-12-14T13:03:54.676Z,995.34
2016-12-14T13:05:03.364Z,995.34
2016-12-14T13:06:12.057Z,995.36
2016-12-14T13:07:20.770Z,995.36
2016-12-14T13:08:29.788Z,995.34
2016-12-14T13:09:38.477Z,995.37
2016-12-14T13:10:47.170Z,995.41
2016-12-14T13:11:55.862Z,995.38
2016-12-14T13:13:04.550Z,995.38
2016-12-14T13:14:13.238Z,995.4
2016-12-14T13:15:21.925Z,995.43
2016-12-14T13:16:30.627Z,995.46
2016-12-14T13:17:39.326Z,995.45
2016-12-14T13:18:48.018Z,995.45
2016-12-14T13:19:56.707Z,995.45
2016-12-14T13:21:05.394Z,995.4
2016-12-14T13:22:14.079Z,995.4
2016-12-14T13:23:22.825Z,995.36
2016-12-14T13:24:31.516Z,995.36
2016-12-14T13:25:40.481Z,995.35
2016-12-14T13:26:49.168Z,995.33
2016-12-14T13:27:57.885Z,995.31
2016-12-14T13:29:06.586Z,995.24
2016-12-14T13:30:15.267Z,995.26
2016-12-14T13:31:23.954Z,995.25
2016-12-14T13:32:32.638Z,995.26
2016-12-14T13:33:41.655Z,995.26
2016-12-14T13:34:50.669Z,995.28
2016-12-14T13:35:59.377Z,995.3
2016-12-14T13:37:08.063Z,995.31
2016-12-14T13:38:16.753Z,995.28
2016-12-14T13:39:25.446Z,995.29
2016-12-14T13:40:34.136Z,995.29
2016-12-14T13:41:42.821Z,995.27
2016-12-14T13:42:51.507Z,995.34
2016-12-14T13:44:00.197Z,995.35
2016-12-14T13:45:08.904Z,995.39
2016-12-14T13:46:17.589Z,995.39
2016-12-14T13:47:26.279Z,995.39
2016-12-14T13:48:34.966Z,995.38
2016-12-14T13:49:43.650Z,995.38
2016-12-14T13:50:52.650Z,995.38
2016-12-14T13:52:01.332Z,995.37
2016-12-14T13:53:10.015Z,995.35
2016-12-14T13:54:18.702Z,995.34
2016-12-14T13:55:27.717Z,995.28
2016-12-14T13:56:36.399Z,995.31
2016-12-14T13:57:45.083Z,995.29
2016-12-14T13:58:53.778Z,995.31
2016-12-14T14:00:02.462Z,995.33
2016-12-14T14:01:11.152Z,995.36
2016-12-14T14:02:19.838Z,995.35
2016-12-14T14:03:28.523Z,995.38
2016-12-14T14:04:37.210Z,995.36
2016-12-14T14:05:45.909Z,995.36
2016-12-14T14:06:54.594Z,995.35
2016-12-14T14:08:03.285Z,995.35
2016-12-14T14:09:11.980Z,995.35
2016-12-14T14:10:20.672Z,995.37
2016-12-14T14:11:29.361Z,995.43
2016-12-14T14:12:38.048Z,995.44
2016-12-14T14:13:46.744Z,995.46
2016-12-14T14:14:55.433Z,995.45
2016-12-14T14:16:04.122Z,995.43
2016-12-14T14:17:12.808Z,995.46
2016-12-14T14:18:21.490Z,995.44
2016-12-14T14:19:30.178Z,995.47
2016-12-14T14:20:38.874Z,995.46